This is the latest recevied weather packets stored in our database for station/object OE6PWE-13. If no packets are shown the sender has not sent any weather packets the latest 10 day(s).
| Time | Temp. | Humidity | Pressure | Rain* | Wind** | Luminosity | Snow |
|---|---|---|---|---|---|---|---|
| 1777866313 | 7.22° C | 96% | 1018 hPa | 0 mm | - | - | - |
| 1777864513 | 7.22° C | 95% | 1018 hPa | 0 mm | - | - | - |
| 1777863620 | 7.22° C | 95% | 1018 hPa | 0 mm | - | - | - |
| 1777862713 | 7.22° C | 94% | 1018 hPa | 0 mm | - | - | - |
| 1777861820 | 7.78° C | 94% | 1018 hPa | 0 mm | - | - | - |
| 1777860913 | 7.78° C | 94% | 1018 hPa | 0 mm | - | - | - |
| 1777860019 | 7.78° C | 93% | 1017 hPa | 0 mm | - | - | - |
| 1777859113 | 7.78° C | 92% | 1017 hPa | 0 mm | - | - | - |
| 1777858223 | 8.33° C | 92% | 1017 hPa | 0 mm | - | - | - |
| 1777857313 | 8.33° C | 91% | 1017 hPa | 0 mm | - | - | - |
| 1777856419 | 8.33° C | 91% | 1017 hPa | 0 mm | - | - | - |
| 1777855514 | 8.33° C | 92% | 1018 hPa | 0 mm | - | - | - |
| 1777854620 | 8.89° C | 90% | 1017 hPa | 0 mm | - | - | - |
| 1777853713 | 9.44° C | 89% | 1017 hPa | 0 mm | - | - | - |
| 1777852820 | 9.44° C | 88% | 1017 hPa | 0 mm | - | - | - |
| 1777851913 | 9.44° C | 88% | 1017 hPa | 0 mm | - | - | - |
| 1777851022 | 9.44° C | 88% | 1017 hPa | 0 mm | - | - | - |
| 1777850113 | 10° C | 85% | 1017 hPa | 0 mm | - | - | - |
| 1777849220 | 10.56° C | 85% | 1017 hPa | 0 mm | - | - | - |
| 1777848313 | 10.56° C | 84% | 1017 hPa | 0 mm | - | - | - |
| 1777847420 | 11.11° C | 82% | 1017 hPa | 0 mm | - | - | - |
| 1777846513 | 11.67° C | 79% | 1017 hPa | 0 mm | - | - | - |
| 1777844713 | 13.33° C | 74% | 1017 hPa | 0 mm | - | - | - |
| 1777843818 | 14.44° C | 70% | 1016 hPa | 0 mm | - | - | - |
| 1777842915 | 15° C | 66% | 1016 hPa | 0 mm | - | - | - |
* Rain latest hour (hover to see other rain measurements)
** Current wind speed in m/s (hover to see current wind gust speed)